createdAt,value
2018-06-30T00:00:25.458Z,93746.45
2018-06-30T00:02:53.226Z,93742.63
2018-06-30T00:05:20.938Z,93747.20
2018-06-30T00:07:48.649Z,93741.98
2018-06-30T00:10:19.959Z,93745.36
2018-06-30T00:12:47.637Z,93741.53
2018-06-30T00:15:15.361Z,93739.92
2018-06-30T00:17:43.035Z,93738.13
2018-06-30T00:20:10.713Z,93731.50
2018-06-30T00:22:38.558Z,93733.11
2018-06-30T00:25:06.259Z,93729.80
2018-06-30T00:27:34.028Z,93723.16
2018-06-30T00:30:01.738Z,93722.76
2018-06-30T00:32:29.477Z,93720.72
2018-06-30T00:34:57.162Z,93718.61
2018-06-30T00:37:24.891Z,93720.86
2018-06-30T00:39:52.562Z,93711.88
2018-06-30T00:42:20.327Z,93723.13
2018-06-30T00:44:48.008Z,93719.09
2018-06-30T00:47:15.717Z,93714.53
2018-06-30T00:49:43.395Z,93718.23
2018-06-30T00:52:11.080Z,93719.64
2018-06-30T00:54:39.254Z,93714.13
2018-06-30T00:57:07.052Z,93716.52
2018-06-30T00:59:34.744Z,93715.00
2018-06-30T01:02:02.515Z,93712.27
2018-06-30T01:04:30.244Z,93718.27
2018-06-30T01:06:57.937Z,93716.81
2018-06-30T01:09:25.926Z,93715.31
2018-06-30T01:11:53.679Z,93717.43
2018-06-30T01:14:21.326Z,93718.14
2018-06-30T01:16:48.983Z,93711.68
2018-06-30T01:19:16.724Z,93716.98
2018-06-30T01:21:44.410Z,93719.08
2018-06-30T01:24:12.095Z,93715.85
2018-06-30T01:26:39.847Z,93715.27
2018-06-30T01:29:07.549Z,93721.54
2018-06-30T01:31:35.277Z,93715.59
2018-06-30T01:34:02.970Z,93711.39
2018-06-30T01:36:30.626Z,93714.30
2018-06-30T01:38:58.282Z,93714.67
2018-06-30T01:41:25.969Z,93716.41
2018-06-30T01:43:53.650Z,93710.44
2018-06-30T01:46:21.388Z,93712.47
2018-06-30T01:48:49.070Z,93704.19
2018-06-30T01:51:16.904Z,93707.53
2018-06-30T01:53:44.582Z,93702.81
2018-06-30T01:56:12.462Z,93699.06
2018-06-30T01:58:40.116Z,93700.61
2018-06-30T02:01:07.906Z,93697.38
2018-06-30T02:03:35.646Z,93696.83
2018-06-30T02:06:03.320Z,93694.55
2018-06-30T02:08:31.015Z,93693.70
2018-06-30T02:10:58.722Z,93692.46
2018-06-30T02:13:26.379Z,93694.62
2018-06-30T02:15:54.090Z,93692.91
2018-06-30T02:18:21.766Z,93691.40
2018-06-30T02:20:49.481Z,93694.05
2018-06-30T02:23:17.189Z,93689.45
2018-06-30T02:25:44.871Z,93697.91
2018-06-30T02:28:12.566Z,93694.53
2018-06-30T02:30:40.230Z,93683.83
2018-06-30T02:33:07.903Z,93689.17
2018-06-30T02:35:35.558Z,93686.78
2018-06-30T02:38:03.257Z,93694.05
2018-06-30T02:40:30.912Z,93688.83
2018-06-30T02:42:58.659Z,93688.33
2018-06-30T02:45:26.331Z,93683.85
2018-06-30T02:47:54.034Z,93684.44
2018-06-30T02:50:22.009Z,93687.41
2018-06-30T02:52:49.691Z,93686.92
2018-06-30T02:55:17.401Z,93682.04
2018-06-30T02:57:45.067Z,93685.36
2018-06-30T03:00:12.955Z,93682.81
2018-06-30T03:02:40.654Z,93674.87
2018-06-30T03:05:08.374Z,93684.14
2018-06-30T03:07:36.058Z,93683.16
2018-06-30T03:10:03.795Z,93681.31
2018-06-30T03:12:31.473Z,93675.43
2018-06-30T03:14:59.146Z,93672.78
2018-06-30T03:17:26.894Z,93674.06
2018-06-30T03:19:54.634Z,93672.67
2018-06-30T03:22:22.542Z,93669.22
2018-06-30T03:24:50.224Z,93670.62
2018-06-30T03:27:17.988Z,93668.67
2018-06-30T03:29:45.655Z,93676.50
2018-06-30T03:32:13.379Z,93671.31
2018-06-30T03:34:41.031Z,93671.53
2018-06-30T03:37:08.706Z,93671.43
2018-06-30T03:39:36.378Z,93680.09
2018-06-30T03:42:04.119Z,93679.12
2018-06-30T03:44:31.895Z,93679.86
2018-06-30T03:46:59.581Z,93686.00
2018-06-30T03:49:27.274Z,93682.69
2018-06-30T03:51:54.984Z,93685.84
2018-06-30T03:54:22.649Z,93680.03
2018-06-30T03:56:50.359Z,93681.53
2018-06-30T03:59:18.036Z,93677.81
2018-06-30T04:01:45.732Z,93681.20
2018-06-30T04:04:13.413Z,93684.87
2018-06-30T04:06:41.378Z,93681.09
2018-06-30T04:09:10.764Z,93682.52
2018-06-30T04:11:38.589Z,93686.09
2018-06-30T04:14:06.618Z,93685.09
2018-06-30T04:16:34.399Z,93683.85
2018-06-30T04:19:17.898Z,93690.64
2018-06-30T04:21:46.687Z,93689.44
2018-06-30T04:24:14.406Z,93688.19
2018-06-30T04:26:42.795Z,93686.31
2018-06-30T04:29:11.010Z,93685.30
2018-06-30T04:31:38.702Z,93683.20
2018-06-30T04:34:06.905Z,93690.87
2018-06-30T04:36:34.615Z,93694.13
2018-06-30T04:39:02.494Z,93688.08
2018-06-30T04:41:30.212Z,93694.66
2018-06-30T04:43:57.894Z,93696.13
2018-06-30T04:46:25.615Z,93695.08
2018-06-30T04:48:53.297Z,93692.89
2018-06-30T04:51:20.990Z,93688.89
2018-06-30T04:53:48.650Z,93682.22
2018-06-30T04:56:16.366Z,93690.61
2018-06-30T04:58:44.042Z,93689.91
2018-06-30T05:01:11.771Z,93694.94
2018-06-30T05:03:39.498Z,93694.20
2018-06-30T05:06:07.356Z,93683.77
2018-06-30T05:08:35.023Z,93689.22
2018-06-30T05:11:02.719Z,93685.31
2018-06-30T05:13:30.414Z,93686.81
2018-06-30T05:15:58.086Z,93694.71
2018-06-30T05:18:25.818Z,93685.32
2018-06-30T05:20:53.499Z,93687.12
2018-06-30T05:23:21.166Z,93692.03
2018-06-30T05:25:48.854Z,93689.88
2018-06-30T05:28:16.542Z,93685.88
2018-06-30T05:30:44.219Z,93682.52
2018-06-30T05:33:11.883Z,93688.81
2018-06-30T05:35:39.592Z,93688.86
2018-06-30T05:38:07.271Z,93687.06
2018-06-30T05:40:35.134Z,93688.13
2018-06-30T05:43:02.783Z,93687.39
2018-06-30T05:45:30.461Z,93686.83
2018-06-30T05:47:58.199Z,93693.59
2018-06-30T05:50:25.898Z,93698.13
2018-06-30T05:52:53.784Z,93702.98
2018-06-30T05:55:21.458Z,93696.27
2018-06-30T05:57:49.179Z,93691.95
2018-06-30T06:00:16.875Z,93691.30
2018-06-30T06:02:44.810Z,93691.47
2018-06-30T06:05:12.476Z,93699.66
2018-06-30T06:07:40.170Z,93697.53
2018-06-30T06:10:07.948Z,93700.84
2018-06-30T06:12:35.597Z,93704.16
2018-06-30T06:15:03.359Z,93704.63
2018-06-30T06:17:31.055Z,93707.18
2018-06-30T06:19:58.763Z,93707.00
2018-06-30T06:22:26.486Z,93701.91
2018-06-30T06:24:54.379Z,93702.28
2018-06-30T06:27:22.126Z,93701.19
2018-06-30T06:29:49.765Z,93703.73
2018-06-30T06:32:17.458Z,93696.52
2018-06-30T06:34:45.195Z,93698.78
2018-06-30T06:37:12.895Z,93701.47
2018-06-30T06:39:40.627Z,93699.31
2018-06-30T06:42:08.337Z,93701.06
2018-06-30T06:44:36.059Z,93696.66
2018-06-30T06:47:03.847Z,93692.98
2018-06-30T06:49:31.550Z,93695.16
2018-06-30T06:51:59.265Z,93683.63
2018-06-30T06:54:27.023Z,93678.56
2018-06-30T06:56:54.791Z,93683.30
2018-06-30T06:59:22.503Z,93680.50
2018-06-30T07:01:50.522Z,93679.02
2018-06-30T07:04:18.265Z,93681.44
2018-06-30T07:06:45.943Z,93677.50
2018-06-30T07:09:14.068Z,93677.24
2018-06-30T07:11:41.723Z,93670.24
2018-06-30T07:14:10.150Z,93672.53
2018-06-30T07:16:38.027Z,93679.38
2018-06-30T07:19:05.714Z,93684.53
2018-06-30T07:21:33.642Z,93677.29
2018-06-30T07:24:01.807Z,93679.92
2018-06-30T07:26:29.274Z,93678.37
2018-06-30T07:28:57.002Z,93676.30
2018-06-30T07:31:24.663Z,93672.98
2018-06-30T07:33:52.343Z,93673.25
2018-06-30T07:36:20.031Z,93668.94
2018-06-30T07:38:47.759Z,93671.69
2018-06-30T07:41:15.563Z,93671.52
2018-06-30T07:43:43.267Z,93678.34
2018-06-30T07:46:10.995Z,93673.14
2018-06-30T07:48:39.051Z,93678.20
2018-06-30T07:51:06.750Z,93672.11
2018-06-30T07:53:34.458Z,93672.77
2018-06-30T07:56:02.352Z,93674.66
2018-06-30T07:58:30.150Z,93675.57
2018-06-30T08:00:57.858Z,93674.20
2018-06-30T08:03:25.636Z,93677.83
2018-06-30T08:05:53.319Z,93675.57
2018-06-30T08:08:20.977Z,93679.17
2018-06-30T08:10:48.950Z,93676.24
2018-06-30T08:13:16.603Z,93677.83
2018-06-30T08:15:44.530Z,93681.22
2018-06-30T08:18:12.223Z,93677.83
2018-06-30T08:20:39.906Z,93679.62
2018-06-30T08:23:07.602Z,93678.24
2018-06-30T08:25:35.947Z,93680.75
2018-06-30T08:28:03.679Z,93681.36
2018-06-30T08:30:31.368Z,93674.78
2018-06-30T08:32:59.069Z,93678.11
2018-06-30T08:35:26.775Z,93675.30
2018-06-30T08:37:54.458Z,93685.31
2018-06-30T08:40:22.177Z,93679.35
2018-06-30T08:42:49.899Z,93675.11
2018-06-30T08:45:17.580Z,93676.97
2018-06-30T08:47:46.050Z,93668.13
2018-06-30T08:50:13.738Z,93671.58
2018-06-30T08:52:41.420Z,93669.97
2018-06-30T08:55:09.165Z,93678.22
2018-06-30T08:57:36.839Z,93675.27
2018-06-30T09:00:04.630Z,93671.41
2018-06-30T09:02:32.364Z,93675.39
2018-06-30T09:05:00.017Z,93676.27
2018-06-30T09:07:27.715Z,93674.16
2018-06-30T09:09:55.370Z,93675.80
2018-06-30T09:12:23.136Z,93670.50
2018-06-30T09:14:50.810Z,93676.20
2018-06-30T09:17:18.477Z,93673.73
2018-06-30T09:19:46.156Z,93669.52
2018-06-30T09:22:13.822Z,93672.70
2018-06-30T09:24:42.517Z,93666.85
2018-06-30T09:27:10.715Z,93672.09
2018-06-30T09:29:38.719Z,93667.00
2018-06-30T09:32:06.686Z,93676.13
2018-06-30T09:34:34.366Z,93673.11
2018-06-30T09:37:02.054Z,93666.48
2018-06-30T09:39:29.730Z,93676.36
2018-06-30T09:41:57.527Z,93663.55
2018-06-30T09:44:25.315Z,93673.09
2018-06-30T09:46:52.980Z,93669.20
2018-06-30T09:49:20.692Z,93670.17
2018-06-30T09:51:48.395Z,93667.49
2018-06-30T09:54:16.122Z,93673.27
2018-06-30T09:56:43.848Z,93665.20
2018-06-30T09:59:11.554Z,93664.98
2018-06-30T10:01:39.215Z,93653.33
2018-06-30T10:04:06.919Z,93661.70
2018-06-30T10:06:34.640Z,93664.68
2018-06-30T10:09:02.817Z,93665.86
2018-06-30T10:11:30.478Z,93671.17
2018-06-30T10:13:58.179Z,93660.47
2018-06-30T10:16:25.911Z,93653.67
2018-06-30T10:18:53.922Z,93663.23
2018-06-30T10:21:21.590Z,93658.63
2018-06-30T10:23:49.290Z,93648.02
2018-06-30T10:26:17.006Z,93654.40
2018-06-30T10:28:48.957Z,93657.28
2018-06-30T10:31:16.814Z,93645.80
2018-06-30T10:33:44.431Z,93648.72
2018-06-30T10:36:12.124Z,93637.67
2018-06-30T10:38:39.830Z,93642.20
2018-06-30T10:41:07.548Z,93638.42
2018-06-30T10:43:35.230Z,93646.07
2018-06-30T10:46:02.990Z,93631.06
2018-06-30T10:48:30.666Z,93631.46
2018-06-30T10:50:59.586Z,93644.37
2018-06-30T10:53:27.365Z,93632.03
2018-06-30T10:55:55.110Z,93628.14
2018-06-30T10:58:23.117Z,93620.77
2018-06-30T11:00:50.842Z,93624.00
2018-06-30T11:03:18.523Z,93630.17
2018-06-30T11:05:46.317Z,93616.73
2018-06-30T11:08:14.011Z,93623.72
2018-06-30T11:10:41.727Z,93612.73
2018-06-30T11:13:09.433Z,93625.95
2018-06-30T11:15:37.123Z,93612.95
2018-06-30T11:18:04.883Z,93616.98
2018-06-30T11:20:32.586Z,93605.84
2018-06-30T11:23:00.298Z,93613.56
2018-06-30T11:25:28.031Z,93613.87
2018-06-30T11:27:55.742Z,93617.80
2018-06-30T11:30:23.446Z,93610.98
2018-06-30T11:32:51.160Z,93608.31
2018-06-30T11:35:18.874Z,93613.41
2018-06-30T11:37:46.543Z,93603.42
2018-06-30T11:40:14.230Z,93608.44
2018-06-30T11:42:41.924Z,93593.16
2018-06-30T11:45:09.635Z,93594.73
2018-06-30T11:47:37.358Z,93595.75
2018-06-30T11:50:05.075Z,93590.56
2018-06-30T11:52:32.780Z,93581.48
2018-06-30T11:55:00.501Z,93592.96
2018-06-30T11:57:28.171Z,93578.30
2018-06-30T11:59:55.861Z,93585.02
2018-06-30T12:02:23.580Z,93592.02
2018-06-30T12:04:51.221Z,93583.00
2018-06-30T12:07:18.921Z,93583.22
2018-06-30T12:09:46.622Z,93575.58
2018-06-30T12:12:14.341Z,93588.72
2018-06-30T12:14:42.152Z,93579.19
2018-06-30T12:17:09.822Z,93577.61
2018-06-30T12:19:39.483Z,93578.52
2018-06-30T12:22:07.267Z,93574.38
2018-06-30T12:24:34.949Z,93574.66
2018-06-30T12:27:02.693Z,93576.69
2018-06-30T12:29:30.376Z,93580.79
2018-06-30T12:31:58.100Z,93576.43
2018-06-30T12:34:25.774Z,93576.20
2018-06-30T12:36:53.830Z,93573.82
2018-06-30T12:39:21.527Z,93575.59
2018-06-30T12:41:49.270Z,93570.55
2018-06-30T12:44:16.954Z,93571.55
2018-06-30T12:46:44.703Z,93571.13
2018-06-30T12:49:12.387Z,93563.28
2018-06-30T12:51:40.112Z,93562.41
2018-06-30T12:54:07.859Z,93566.00
2018-06-30T12:56:35.525Z,93561.50
2018-06-30T12:59:03.270Z,93564.56
2018-06-30T13:01:30.962Z,93559.94
2018-06-30T13:03:58.650Z,93565.16
2018-06-30T13:06:26.400Z,93552.05
2018-06-30T13:08:54.151Z,93560.05
2018-06-30T13:11:21.866Z,93561.09
2018-06-30T13:13:49.846Z,93558.69
2018-06-30T13:16:17.530Z,93559.13
2018-06-30T13:18:45.227Z,93558.89
2018-06-30T13:21:12.960Z,93553.05
2018-06-30T13:23:40.688Z,93550.83
2018-06-30T13:26:08.468Z,93539.12
2018-06-30T13:28:36.139Z,93568.70
2018-06-30T13:31:03.903Z,93570.64
2018-06-30T13:33:31.647Z,93552.33
2018-06-30T13:35:59.345Z,93561.76
2018-06-30T13:38:27.045Z,93558.56
2018-06-30T13:40:54.750Z,93555.06
2018-06-30T13:43:22.825Z,93558.80
2018-06-30T13:45:50.494Z,93549.09
2018-06-30T13:48:18.191Z,93554.61
2018-06-30T13:50:45.942Z,93555.78
2018-06-30T13:53:13.739Z,93556.14
2018-06-30T13:55:42.621Z,93553.65
2018-06-30T13:58:10.283Z,93554.02
2018-06-30T14:00:37.958Z,93544.56
2018-06-30T14:03:05.702Z,93553.90
2018-06-30T14:05:33.447Z,93545.66
2018-06-30T14:08:01.207Z,93549.97
2018-06-30T14:10:28.950Z,93551.57
2018-06-30T14:12:56.711Z,93547.75
2018-06-30T14:15:24.430Z,93551.07
2018-06-30T14:17:52.144Z,93548.08
2018-06-30T14:20:19.868Z,93544.44
2018-06-30T14:22:47.574Z,93546.64
2018-06-30T14:25:15.310Z,93546.59
2018-06-30T14:27:43.343Z,93534.52
2018-06-30T14:30:12.215Z,93540.10
2018-06-30T14:32:40.412Z,93540.42
2018-06-30T14:35:08.786Z,93532.28
2018-06-30T14:37:36.781Z,93538.17
2018-06-30T14:40:04.643Z,93532.15
2018-06-30T14:42:32.388Z,93533.78
2018-06-30T14:45:00.085Z,93541.47
2018-06-30T14:47:28.631Z,93538.27
2018-06-30T14:49:56.425Z,93533.12
2018-06-30T14:52:24.266Z,93525.53
2018-06-30T14:54:51.926Z,93527.66
2018-06-30T14:57:19.671Z,93528.94
2018-06-30T14:59:47.361Z,93523.84
2018-06-30T15:02:15.051Z,93525.45
2018-06-30T15:04:42.750Z,93525.29
2018-06-30T15:07:10.466Z,93532.09
2018-06-30T15:09:38.167Z,93530.35
2018-06-30T15:12:05.936Z,93528.23
2018-06-30T15:14:33.766Z,93526.02
2018-06-30T15:17:01.506Z,93531.57
2018-06-30T15:19:29.220Z,93526.41
2018-06-30T15:21:56.997Z,93526.90
2018-06-30T15:24:24.693Z,93525.73
2018-06-30T15:26:52.406Z,93517.05
2018-06-30T15:29:20.109Z,93514.93
2018-06-30T15:31:47.833Z,93511.93
2018-06-30T15:34:15.540Z,93509.13
2018-06-30T15:36:43.243Z,93513.34
2018-06-30T15:39:11.289Z,93513.00
2018-06-30T15:41:38.985Z,93511.79
2018-06-30T15:44:06.961Z,93514.55
2018-06-30T15:46:34.712Z,93521.59
2018-06-30T15:49:02.439Z,93520.00
2018-06-30T15:51:30.136Z,93520.91
2018-06-30T15:53:57.992Z,93514.55
2018-06-30T15:56:25.609Z,93515.89
2018-06-30T15:58:53.302Z,93509.41
2018-06-30T16:01:21.022Z,93519.94
2018-06-30T16:03:48.722Z,93518.05
2018-06-30T16:06:16.402Z,93520.44
2018-06-30T16:08:45.269Z,93516.03
2018-06-30T16:11:12.967Z,93518.06
2018-06-30T16:13:40.697Z,93523.88
2018-06-30T16:16:08.433Z,93526.45
2018-06-30T16:18:36.165Z,93527.94
2018-06-30T16:21:03.914Z,93524.40
2018-06-30T16:23:31.601Z,93519.01
2018-06-30T16:25:59.287Z,93516.66
2018-06-30T16:28:26.970Z,93519.23
2018-06-30T16:30:54.707Z,93516.91
2018-06-30T16:33:22.680Z,93512.58
2018-06-30T16:35:50.355Z,93511.83
2018-06-30T16:38:18.017Z,93513.97
2018-06-30T16:40:45.713Z,93518.64
2018-06-30T16:43:13.462Z,93511.41
2018-06-30T16:45:41.170Z,93507.86
2018-06-30T16:48:08.830Z,93510.31
2018-06-30T16:50:36.479Z,93520.93
2018-06-30T16:53:04.246Z,93516.76
2018-06-30T16:55:31.929Z,93506.48
2018-06-30T16:57:59.631Z,93516.13
2018-06-30T17:00:27.442Z,93512.03
2018-06-30T17:02:55.154Z,93506.69
2018-06-30T17:05:22.856Z,93514.52
2018-06-30T17:07:50.546Z,93506.55
2018-06-30T17:10:18.255Z,93521.58
2018-06-30T17:12:45.955Z,93514.77
2018-06-30T17:15:13.646Z,93518.33
2018-06-30T17:17:41.697Z,93521.84
2018-06-30T17:20:09.444Z,93514.27
2018-06-30T17:22:37.147Z,93518.47
2018-06-30T17:25:04.851Z,93520.11
2018-06-30T17:27:32.556Z,93519.27
2018-06-30T17:30:01.500Z,93516.91
2018-06-30T17:32:29.219Z,93517.55
2018-06-30T17:34:56.913Z,93522.74
2018-06-30T17:37:24.603Z,93519.50
2018-06-30T17:39:52.272Z,93522.05
2018-06-30T17:42:19.995Z,93516.48
2018-06-30T17:44:47.703Z,93507.40
2018-06-30T17:47:15.400Z,93513.80
2018-06-30T17:49:43.110Z,93506.02
2018-06-30T17:52:10.855Z,93516.30
2018-06-30T17:54:38.571Z,93503.80
2018-06-30T17:57:06.270Z,93506.70
2018-06-30T17:59:34.074Z,93502.61
2018-06-30T18:02:01.803Z,93504.09
2018-06-30T18:04:29.602Z,93510.53
2018-06-30T18:06:57.303Z,93511.78
2018-06-30T18:09:25.008Z,93511.27
2018-06-30T18:11:52.722Z,93512.16
2018-06-30T18:14:20.460Z,93523.53
2018-06-30T18:16:48.177Z,93518.98
2018-06-30T18:19:15.935Z,93524.81
2018-06-30T18:21:43.653Z,93529.97
2018-06-30T18:24:11.325Z,93524.75
2018-06-30T18:26:39.066Z,93521.89
2018-06-30T18:29:06.769Z,93519.69
2018-06-30T18:31:34.513Z,93521.47
2018-06-30T18:34:02.211Z,93525.76
2018-06-30T18:36:29.935Z,93537.00
2018-06-30T18:38:57.629Z,93539.68
2018-06-30T18:41:25.370Z,93532.66
2018-06-30T18:43:53.089Z,93538.26
2018-06-30T18:46:20.851Z,93539.58
2018-06-30T18:48:48.582Z,93541.03
2018-06-30T18:51:16.322Z,93543.52
2018-06-30T18:53:44.014Z,93540.17
2018-06-30T18:56:11.765Z,93541.99
2018-06-30T18:58:39.454Z,93545.09
2018-06-30T19:01:07.170Z,93546.34
2018-06-30T19:03:34.919Z,93549.22
2018-06-30T19:06:02.647Z,93544.70
2018-06-30T19:08:30.342Z,93547.69
2018-06-30T19:10:58.154Z,93550.53
2018-06-30T19:13:26.106Z,93553.73
2018-06-30T19:15:53.803Z,93551.64
2018-06-30T19:18:21.566Z,93562.50
2018-06-30T19:20:49.302Z,93560.64
2018-06-30T19:23:16.982Z,93563.55
2018-06-30T19:25:44.661Z,93562.44
2018-06-30T19:28:12.393Z,93563.34
2018-06-30T19:30:40.084Z,93575.22
2018-06-30T19:33:08.108Z,93571.22
2018-06-30T19:35:35.791Z,93577.16
2018-06-30T19:38:03.550Z,93577.48
2018-06-30T19:40:31.315Z,93584.56
2018-06-30T19:42:59.066Z,93589.48
2018-06-30T19:45:26.778Z,93590.59
2018-06-30T19:47:54.573Z,93593.86
2018-06-30T19:50:22.255Z,93590.01
2018-06-30T19:52:49.989Z,93596.22
2018-06-30T19:55:17.669Z,93599.75
2018-06-30T19:57:45.325Z,93607.11
2018-06-30T20:00:13.036Z,93604.25
2018-06-30T20:02:40.762Z,93604.52
2018-06-30T20:05:08.487Z,93606.45
2018-06-30T20:07:41.743Z,93603.04
2018-06-30T20:10:09.402Z,93604.65
2018-06-30T20:12:37.115Z,93612.19
2018-06-30T20:15:04.799Z,93621.29
2018-06-30T20:17:32.523Z,93608.94
2018-06-30T20:20:00.214Z,93617.00
2018-06-30T20:22:27.903Z,93624.55
2018-06-30T20:24:55.638Z,93618.62
2018-06-30T20:27:23.352Z,93617.69
2018-06-30T20:29:51.020Z,93622.05
2018-06-30T20:32:18.726Z,93630.59
2018-06-30T20:34:46.439Z,93629.55
2018-06-30T20:37:14.145Z,93621.28
2018-06-30T20:39:41.900Z,93623.46
2018-06-30T20:42:09.608Z,93626.91
2018-06-30T20:44:37.377Z,93625.09
2018-06-30T20:47:05.083Z,93625.64
2018-06-30T20:49:32.927Z,93627.30
2018-06-30T20:52:00.626Z,93625.92
2018-06-30T20:54:28.330Z,93635.53
2018-06-30T20:56:56.044Z,93631.30
2018-06-30T20:59:23.764Z,93635.05
2018-06-30T21:01:51.479Z,93629.73
2018-06-30T21:04:19.256Z,93636.63
2018-06-30T21:06:46.984Z,93637.23
2018-06-30T21:09:14.699Z,93632.95
2018-06-30T21:11:42.748Z,93638.30
2018-06-30T21:14:10.427Z,93637.20
2018-06-30T21:16:38.154Z,93634.81
2018-06-30T21:19:05.924Z,93634.84
2018-06-30T21:21:33.654Z,93651.15
2018-06-30T21:24:01.423Z,93642.06
2018-06-30T21:26:29.131Z,93643.67
2018-06-30T21:28:56.822Z,93643.95
2018-06-30T21:31:24.581Z,93642.59
2018-06-30T21:33:52.269Z,93645.25
2018-06-30T21:36:20.019Z,93640.45
2018-06-30T21:38:47.697Z,93641.25
2018-06-30T21:41:15.426Z,93642.05
2018-06-30T21:43:43.162Z,93645.78
2018-06-30T21:46:10.964Z,93654.86
2018-06-30T21:48:38.726Z,93652.70
2018-06-30T21:51:06.423Z,93652.18
2018-06-30T21:53:34.143Z,93651.64
2018-06-30T21:56:01.810Z,93651.36
2018-06-30T21:58:29.514Z,93658.84
2018-06-30T22:01:02.903Z,93659.64
2018-06-30T22:03:30.611Z,93659.09
2018-06-30T22:05:58.438Z,93660.40
2018-06-30T22:08:26.170Z,93658.01
2018-06-30T22:10:53.955Z,93660.41
2018-06-30T22:13:21.690Z,93660.11
2018-06-30T22:15:49.887Z,93663.05
2018-06-30T22:18:17.598Z,93668.31
2018-06-30T22:20:45.302Z,93660.61
2018-06-30T22:23:13.058Z,93663.30
2018-06-30T22:25:41.279Z,93658.95
2018-06-30T22:28:08.992Z,93669.13
2018-06-30T22:30:36.679Z,93660.82
2018-06-30T22:33:04.454Z,93664.80
2018-06-30T22:35:32.130Z,93669.62
2018-06-30T22:37:59.859Z,93657.88
2018-06-30T22:40:27.654Z,93655.48
2018-06-30T22:42:55.266Z,93654.64
2018-06-30T22:45:23.067Z,93661.33
2018-06-30T22:47:50.754Z,93655.13
2018-06-30T22:50:18.807Z,93652.47
2018-06-30T22:52:46.562Z,93652.97
2018-06-30T22:55:14.511Z,93645.47
2018-06-30T22:57:42.227Z,93652.41
2018-06-30T23:00:11.730Z,93656.66
2018-06-30T23:02:39.412Z,93649.73
2018-06-30T23:05:07.746Z,93653.16
2018-06-30T23:07:35.586Z,93654.48
2018-06-30T23:10:03.342Z,93648.67
2018-06-30T23:12:31.123Z,93645.69
2018-06-30T23:14:58.980Z,93643.84
2018-06-30T23:17:26.686Z,93646.77
2018-06-30T23:19:54.414Z,93639.08
2018-06-30T23:22:30.176Z,93644.30
2018-06-30T23:24:57.911Z,93642.70
2018-06-30T23:27:25.658Z,93646.05
2018-06-30T23:29:53.340Z,93637.23
2018-06-30T23:32:21.072Z,93643.61
2018-06-30T23:34:48.790Z,93640.89
2018-06-30T23:37:16.514Z,93646.55
2018-06-30T23:39:44.190Z,93643.78
2018-06-30T23:42:11.955Z,93646.97
2018-06-30T23:44:39.741Z,93643.86
2018-06-30T23:47:07.500Z,93651.06
2018-06-30T23:49:35.278Z,93650.19
2018-06-30T23:52:03.068Z,93655.84
2018-06-30T23:54:30.769Z,93654.75
2018-06-30T23:56:58.467Z,93660.48
2018-06-30T23:59:26.198Z,93670.03
